createdAt,value
2022-09-28T00:00:07.544Z,975.53
2022-09-28T00:01:07.540Z,975.47
2022-09-28T00:02:07.666Z,975.45
2022-09-28T00:03:07.535Z,975.44
2022-09-28T00:04:07.471Z,975.46
2022-09-28T00:05:07.452Z,975.41
2022-09-28T00:06:07.431Z,975.43
2022-09-28T00:07:07.415Z,975.37
2022-09-28T00:08:07.397Z,975.37
2022-09-28T00:09:07.384Z,975.36
2022-09-28T00:10:15.037Z,975.34
2022-09-28T00:12:11.817Z,975.26
2022-09-28T00:13:11.771Z,975.23
2022-09-28T00:15:16.215Z,975.20
2022-09-28T00:16:16.282Z,975.19
2022-09-28T00:18:20.632Z,975.18
2022-09-28T00:19:20.593Z,975.16
2022-09-28T00:20:20.564Z,975.09
2022-09-28T00:21:20.551Z,975.16
2022-09-28T00:22:20.530Z,975.14
2022-09-28T00:23:20.513Z,975.09
2022-09-28T00:24:24.000Z,975.09
2022-09-28T00:25:20.494Z,974.98
2022-09-28T00:26:20.457Z,975.03
2022-09-28T00:27:20.441Z,974.93
2022-09-28T00:28:20.424Z,974.92
2022-09-28T00:29:20.400Z,974.86
2022-09-28T00:30:20.383Z,974.79
2022-09-28T00:31:20.402Z,974.78
2022-09-28T00:32:20.348Z,974.77
2022-09-28T00:33:20.330Z,974.74
2022-09-28T00:34:20.337Z,974.71
2022-09-28T00:35:20.319Z,974.70
2022-09-28T00:36:20.279Z,974.64
2022-09-28T00:37:20.282Z,974.63
2022-09-28T00:38:20.247Z,974.62
2022-09-28T00:39:20.220Z,974.58
2022-09-28T00:40:20.247Z,974.58
2022-09-28T00:41:20.186Z,974.58
2022-09-28T00:42:20.165Z,974.58
2022-09-28T00:43:20.145Z,974.55
2022-09-28T00:44:20.134Z,974.53
2022-09-28T00:45:20.111Z,974.48
2022-09-28T00:46:20.172Z,974.50
2022-09-28T00:47:20.072Z,974.49
2022-09-28T00:48:20.054Z,974.46
2022-09-28T00:49:20.035Z,974.49
2022-09-28T00:50:20.018Z,974.49
2022-09-28T00:51:19.999Z,974.49
2022-09-28T00:52:19.980Z,974.50
2022-09-28T00:53:19.989Z,974.50
2022-09-28T00:54:19.945Z,974.49
2022-09-28T00:55:19.925Z,974.45
2022-09-28T00:56:19.913Z,974.42
2022-09-28T00:57:19.889Z,974.42
2022-09-28T00:58:19.869Z,974.40
2022-09-28T00:59:19.850Z,974.42
2022-09-28T01:00:19.833Z,974.37
2022-09-28T01:01:19.850Z,974.36
2022-09-28T01:02:19.839Z,974.34
2022-09-28T01:03:19.781Z,974.37
2022-09-28T01:04:19.775Z,974.31
2022-09-28T01:05:19.740Z,974.30
2022-09-28T01:06:19.728Z,974.32
2022-09-28T01:07:19.703Z,974.29
2022-09-28T01:08:19.686Z,974.25
2022-09-28T01:09:19.669Z,974.19
2022-09-28T01:10:19.650Z,974.17
2022-09-28T01:11:19.637Z,974.13
2022-09-28T01:12:19.641Z,974.14
2022-09-28T01:13:19.619Z,974.14
2022-09-28T01:14:19.657Z,974.14
2022-09-28T01:15:19.608Z,974.10
2022-09-28T01:16:19.670Z,974.14
2022-09-28T01:17:19.594Z,974.06
2022-09-28T01:18:19.557Z,974.03
2022-09-28T01:19:19.547Z,974.06
2022-09-28T01:20:19.633Z,974.03
2022-09-28T01:21:19.494Z,973.99
2022-09-28T01:22:19.470Z,973.93
2022-09-28T01:23:19.424Z,973.97
2022-09-28T01:24:19.436Z,973.92
2022-09-28T01:25:19.441Z,973.94
2022-09-28T01:26:19.370Z,973.97
2022-09-28T01:27:19.402Z,973.90
2022-09-28T01:28:19.389Z,973.91
2022-09-28T01:29:19.365Z,973.84
2022-09-28T01:30:19.305Z,973.91
2022-09-28T01:31:19.331Z,973.94
2022-09-28T01:32:19.273Z,973.95
2022-09-28T01:33:19.236Z,973.92
2022-09-28T01:34:19.212Z,973.89
2022-09-28T01:35:19.190Z,973.88
2022-09-28T01:36:19.176Z,973.83
2022-09-28T01:37:19.161Z,973.80
2022-09-28T01:38:19.144Z,973.76
2022-09-28T01:39:19.126Z,973.75
2022-09-28T01:40:19.127Z,973.75
2022-09-28T01:41:19.083Z,973.72
2022-09-28T01:42:19.069Z,973.69
2022-09-28T01:43:19.047Z,973.72
2022-09-28T01:44:19.034Z,973.64
2022-09-28T01:45:19.011Z,973.69
2022-09-28T01:46:19.009Z,973.63
2022-09-28T01:47:18.971Z,973.63
2022-09-28T01:48:18.958Z,973.61
2022-09-28T01:49:19.101Z,973.59
2022-09-28T01:50:18.923Z,973.61
2022-09-28T01:51:18.899Z,973.55
2022-09-28T01:52:18.884Z,973.58
2022-09-28T01:53:18.866Z,973.57
2022-09-28T01:54:18.856Z,973.58
2022-09-28T01:55:18.828Z,973.58
2022-09-28T01:56:18.813Z,973.54
2022-09-28T01:57:18.798Z,973.52
2022-09-28T01:58:18.776Z,973.51
2022-09-28T01:59:18.761Z,973.50
2022-09-28T02:00:18.742Z,973.50
2022-09-28T02:01:18.767Z,973.52
2022-09-28T02:02:18.826Z,973.47
2022-09-28T02:03:18.682Z,973.49
2022-09-28T02:04:18.665Z,973.42
2022-09-28T02:05:18.651Z,973.46
2022-09-28T02:06:18.631Z,973.45
2022-09-28T02:07:18.612Z,973.49
2022-09-28T02:08:18.597Z,973.50
2022-09-28T02:09:18.572Z,973.51
2022-09-28T02:10:18.575Z,973.47
2022-09-28T02:11:18.538Z,973.46
2022-09-28T02:12:18.522Z,973.45
2022-09-28T02:13:18.501Z,973.47
2022-09-28T02:14:18.485Z,973.49
2022-09-28T02:15:18.463Z,973.47
2022-09-28T02:16:18.568Z,973.38
2022-09-28T02:17:18.430Z,973.38
2022-09-28T02:18:18.414Z,973.41
2022-09-28T02:19:18.593Z,973.44
2022-09-28T02:20:18.381Z,973.45
2022-09-28T02:21:18.359Z,973.44
2022-09-28T02:22:18.359Z,973.37
2022-09-28T02:23:18.320Z,973.37
2022-09-28T02:24:21.545Z,973.36
2022-09-28T02:25:18.285Z,973.36
2022-09-28T02:26:18.271Z,973.37
2022-09-28T02:27:18.248Z,973.35
2022-09-28T02:28:18.231Z,973.31
2022-09-28T02:29:18.357Z,973.31
2022-09-28T02:30:18.197Z,973.29
2022-09-28T02:31:18.248Z,973.25
2022-09-28T02:32:18.163Z,973.29
2022-09-28T02:33:18.159Z,973.33
2022-09-28T02:34:18.131Z,973.32
2022-09-28T02:35:18.114Z,973.30
2022-09-28T02:36:18.090Z,973.31
2022-09-28T02:37:18.069Z,973.28
2022-09-28T02:38:18.049Z,973.24
2022-09-28T02:39:18.209Z,973.24
2022-09-28T02:40:18.056Z,973.21
2022-09-28T02:41:18.003Z,973.26
2022-09-28T02:42:17.982Z,973.22
2022-09-28T02:43:17.962Z,973.24
2022-09-28T02:44:17.942Z,973.15
2022-09-28T02:45:17.933Z,973.15
2022-09-28T02:46:17.948Z,973.14
2022-09-28T02:47:17.888Z,973.14
2022-09-28T02:48:27.192Z,973.14
2022-09-28T02:49:21.674Z,973.16
2022-09-28T02:50:17.836Z,973.13
2022-09-28T02:51:17.825Z,973.09
2022-09-28T02:52:17.801Z,973.05
2022-09-28T02:53:17.783Z,973.07
2022-09-28T02:54:18.897Z,973.12
2022-09-28T02:55:17.748Z,973.07
2022-09-28T02:56:17.730Z,973.11
2022-09-28T02:57:17.708Z,973.06
2022-09-28T02:58:17.696Z,973.04
2022-09-28T02:59:17.786Z,973.03
2022-09-28T03:00:17.657Z,973.05
2022-09-28T03:01:17.670Z,973.02
2022-09-28T03:02:17.665Z,973.07
2022-09-28T03:03:17.604Z,973.09
2022-09-28T03:04:17.589Z,973.03
2022-09-28T03:05:17.573Z,973.02
2022-09-28T03:06:17.552Z,973.03
2022-09-28T03:07:17.531Z,973.00
2022-09-28T03:08:17.518Z,973.02
2022-09-28T03:09:17.616Z,972.98
2022-09-28T03:10:17.478Z,973.00
2022-09-28T03:11:17.463Z,973.05
2022-09-28T03:12:17.444Z,973.07
2022-09-28T03:13:17.422Z,973.06
2022-09-28T03:14:17.409Z,973.05
2022-09-28T03:15:17.385Z,973.01
2022-09-28T03:16:17.448Z,973.01
2022-09-28T03:17:17.356Z,973.04
2022-09-28T03:18:17.340Z,973.03
2022-09-28T03:19:17.376Z,972.99
2022-09-28T03:20:17.300Z,972.99
2022-09-28T03:21:17.281Z,973.01
2022-09-28T03:22:17.261Z,973.05
2022-09-28T03:23:24.704Z,973.01
2022-09-28T03:24:17.226Z,972.98
2022-09-28T03:25:17.204Z,972.99
2022-09-28T03:26:17.200Z,973.01
2022-09-28T03:27:17.171Z,972.95
2022-09-28T03:28:17.155Z,972.95
2022-09-28T03:29:17.214Z,972.96
2022-09-28T03:30:17.117Z,972.98
2022-09-28T03:31:17.148Z,972.99
2022-09-28T03:32:17.083Z,972.98
2022-09-28T03:33:17.072Z,973.02
2022-09-28T03:34:17.058Z,972.97
2022-09-28T03:35:17.026Z,972.94
2022-09-28T03:36:17.014Z,972.99
2022-09-28T03:37:16.987Z,973.05
2022-09-28T03:38:16.972Z,973.00
2022-09-28T03:39:17.056Z,973.00
2022-09-28T03:40:16.972Z,973.05
2022-09-28T03:41:16.916Z,972.99
2022-09-28T03:42:16.900Z,972.98
2022-09-28T03:43:16.892Z,973.04
2022-09-28T03:44:16.864Z,973.04
2022-09-28T03:45:16.845Z,972.97
2022-09-28T03:46:16.943Z,973.05
2022-09-28T03:47:16.805Z,973.03
2022-09-28T03:48:19.534Z,973.05
2022-09-28T03:49:16.927Z,973.04
2022-09-28T03:50:16.757Z,973.05
2022-09-28T03:51:16.751Z,973.11
2022-09-28T03:52:16.724Z,973.23
2022-09-28T03:53:16.703Z,973.35
2022-09-28T03:54:16.684Z,973.38
2022-09-28T03:55:16.664Z,973.37
2022-09-28T03:56:16.655Z,973.33
2022-09-28T03:57:16.633Z,973.35
2022-09-28T03:58:16.613Z,973.38
2022-09-28T03:59:16.717Z,973.32
2022-09-28T04:00:16.576Z,973.31
2022-09-28T04:01:17.582Z,973.25
2022-09-28T04:02:16.564Z,973.23
2022-09-28T04:03:16.535Z,973.19
2022-09-28T04:04:16.503Z,973.19
2022-09-28T04:05:16.486Z,973.17
2022-09-28T04:06:16.468Z,973.19
2022-09-28T04:07:16.451Z,973.12
2022-09-28T04:08:16.436Z,973.13
2022-09-28T04:09:16.571Z,973.11
2022-09-28T04:10:16.397Z,973.09
2022-09-28T04:11:16.377Z,973.13
2022-09-28T04:12:16.361Z,973.12
2022-09-28T04:13:16.342Z,973.12
2022-09-28T04:14:16.326Z,973.12
2022-09-28T04:15:16.311Z,973.14
2022-09-28T04:16:16.326Z,973.15
2022-09-28T04:17:16.270Z,973.13
2022-09-28T04:18:16.253Z,973.13
2022-09-28T04:19:16.244Z,973.16
2022-09-28T04:20:16.227Z,973.19
2022-09-28T04:21:16.202Z,973.16
2022-09-28T04:22:16.181Z,973.17
2022-09-28T04:23:16.174Z,973.16
2022-09-28T04:24:16.145Z,973.16
2022-09-28T04:25:16.126Z,973.15
2022-09-28T04:26:16.107Z,973.16
2022-09-28T04:27:16.087Z,973.19
2022-09-28T04:28:16.070Z,973.18
2022-09-28T04:29:16.090Z,973.17
2022-09-28T04:30:16.041Z,973.20
2022-09-28T04:31:16.045Z,973.17
2022-09-28T04:32:16.002Z,973.22
2022-09-28T04:33:15.991Z,973.22
2022-09-28T04:34:15.962Z,973.24
2022-09-28T04:35:15.944Z,973.25
2022-09-28T04:36:15.925Z,973.24
2022-09-28T04:37:15.908Z,973.25
2022-09-28T04:38:23.510Z,973.20
2022-09-28T04:39:15.868Z,973.18
2022-09-28T04:40:15.959Z,973.12
2022-09-28T04:41:15.833Z,973.13
2022-09-28T04:42:15.850Z,973.17
2022-09-28T04:43:15.797Z,973.25
2022-09-28T04:44:15.784Z,973.28
2022-09-28T04:45:15.764Z,973.28
2022-09-28T04:46:15.809Z,973.29
2022-09-28T04:47:15.726Z,973.29
2022-09-28T04:48:15.704Z,973.28
2022-09-28T04:49:15.723Z,973.25
2022-09-28T04:50:15.672Z,973.26
2022-09-28T04:51:15.653Z,973.27
2022-09-28T04:52:18.291Z,973.24
2022-09-28T04:53:15.615Z,973.29
2022-09-28T04:54:15.597Z,973.27
2022-09-28T04:55:15.576Z,973.30
2022-09-28T04:56:15.565Z,973.33
2022-09-28T04:57:15.541Z,973.32
2022-09-28T04:58:15.523Z,973.30
2022-09-28T04:59:15.628Z,973.31
2022-09-28T05:00:15.492Z,973.36
2022-09-28T05:01:15.532Z,973.39
2022-09-28T05:02:15.555Z,973.40
2022-09-28T05:03:15.431Z,973.40
2022-09-28T05:04:15.413Z,973.41
2022-09-28T05:05:15.397Z,973.44
2022-09-28T05:06:15.380Z,973.45
2022-09-28T05:07:15.363Z,973.49
2022-09-28T05:08:15.342Z,973.47
2022-09-28T05:09:15.373Z,973.47
2022-09-28T05:10:15.304Z,973.48
2022-09-28T05:11:15.288Z,973.48
2022-09-28T05:12:15.265Z,973.51
2022-09-28T05:13:15.255Z,973.53
2022-09-28T05:14:15.229Z,973.57
2022-09-28T05:15:15.227Z,973.62
2022-09-28T05:16:15.239Z,973.60
2022-09-28T05:17:15.177Z,973.61
2022-09-28T05:18:15.157Z,973.59
2022-09-28T05:19:15.206Z,973.59
2022-09-28T05:20:15.118Z,973.59
2022-09-28T05:21:15.122Z,973.61
2022-09-28T05:22:15.098Z,973.64
2022-09-28T05:23:15.065Z,973.62
2022-09-28T05:24:15.044Z,973.65
2022-09-28T05:25:15.027Z,973.68
2022-09-28T05:26:15.011Z,973.65
2022-09-28T05:27:14.991Z,973.67
2022-09-28T05:28:14.972Z,973.69
2022-09-28T05:29:15.055Z,973.65
2022-09-28T05:30:14.934Z,973.69
2022-09-28T05:31:15.079Z,973.66
2022-09-28T05:32:14.901Z,973.66
2022-09-28T05:33:14.881Z,973.70
2022-09-28T05:34:14.867Z,973.67
2022-09-28T05:35:14.848Z,973.66
2022-09-28T05:36:14.825Z,973.70
2022-09-28T05:37:14.813Z,973.73
2022-09-28T05:38:14.787Z,973.73
2022-09-28T05:39:14.838Z,973.77
2022-09-28T05:40:14.955Z,973.79
2022-09-28T05:41:14.735Z,973.79
2022-09-28T05:42:14.713Z,973.82
2022-09-28T05:43:14.697Z,973.82
2022-09-28T05:44:14.817Z,973.84
2022-09-28T05:45:14.660Z,973.85
2022-09-28T05:46:14.811Z,973.86
2022-09-28T05:47:14.631Z,973.87
2022-09-28T05:48:14.604Z,973.87
2022-09-28T05:49:14.589Z,973.87
2022-09-28T05:50:14.567Z,973.89
2022-09-28T05:51:14.549Z,973.86
2022-09-28T05:52:14.530Z,973.87
2022-09-28T05:53:14.516Z,973.86
2022-09-28T05:54:14.550Z,973.87
2022-09-28T05:55:14.481Z,973.89
2022-09-28T05:56:14.458Z,973.89
2022-09-28T05:57:14.444Z,973.85
2022-09-28T05:58:14.428Z,973.88
2022-09-28T05:59:14.404Z,973.93
2022-09-28T06:00:14.389Z,973.94
2022-09-28T06:01:14.458Z,973.94
2022-09-28T06:02:14.400Z,973.95
2022-09-28T06:03:14.336Z,973.93
2022-09-28T06:04:14.413Z,973.96
2022-09-28T06:05:14.294Z,973.97
2022-09-28T06:06:14.275Z,973.99
2022-09-28T06:07:14.261Z,974.00
2022-09-28T06:08:14.240Z,974.01
2022-09-28T06:09:14.226Z,974.07
2022-09-28T06:10:14.203Z,974.07
2022-09-28T06:11:14.191Z,974.06
2022-09-28T06:12:14.170Z,974.05
2022-09-28T06:13:14.180Z,974.04
2022-09-28T06:14:14.173Z,974.05
2022-09-28T06:15:14.113Z,974.05
2022-09-28T06:16:14.138Z,974.06
2022-09-28T06:17:14.077Z,974.08
2022-09-28T06:18:14.060Z,974.06
2022-09-28T06:19:14.039Z,974.04
2022-09-28T06:20:14.021Z,974.03
2022-09-28T06:21:14.005Z,974.04
2022-09-28T06:22:13.986Z,974.09
2022-09-28T06:23:13.975Z,974.05
2022-09-28T06:24:14.002Z,974.07
2022-09-28T06:25:13.940Z,974.12
2022-09-28T06:26:13.918Z,974.09
2022-09-28T06:27:13.910Z,974.13
2022-09-28T06:28:13.899Z,974.14
2022-09-28T06:29:19.231Z,974.16
2022-09-28T06:30:13.844Z,974.18
2022-09-28T06:31:13.874Z,974.18
2022-09-28T06:32:13.811Z,974.17
2022-09-28T06:33:13.797Z,974.19
2022-09-28T06:34:13.820Z,974.24
2022-09-28T06:35:13.754Z,974.23
2022-09-28T06:36:13.739Z,974.24
2022-09-28T06:37:13.725Z,974.25
2022-09-28T06:38:13.699Z,974.27
2022-09-28T06:39:13.685Z,974.30
2022-09-28T06:40:13.675Z,974.34
2022-09-28T06:41:13.650Z,974.30
2022-09-28T06:42:13.628Z,974.37
2022-09-28T06:43:13.613Z,974.35
2022-09-28T06:44:13.694Z,974.34
2022-09-28T06:45:13.576Z,974.33
2022-09-28T06:46:13.693Z,974.37
2022-09-28T06:47:13.541Z,974.32
2022-09-28T06:48:13.524Z,974.34
2022-09-28T06:49:18.659Z,974.37
2022-09-28T06:50:13.485Z,974.38
2022-09-28T06:51:13.468Z,974.36
2022-09-28T06:52:13.453Z,974.36
2022-09-28T06:53:13.437Z,974.34
2022-09-28T06:54:13.419Z,974.37
2022-09-28T06:55:13.398Z,974.42
2022-09-28T06:56:13.379Z,974.40
2022-09-28T06:57:13.362Z,974.41
2022-09-28T06:58:13.344Z,974.44
2022-09-28T06:59:13.326Z,974.42
2022-09-28T07:00:13.308Z,974.43
2022-09-28T07:01:13.314Z,974.47
2022-09-28T07:02:13.316Z,974.49
2022-09-28T07:03:13.256Z,974.49
2022-09-28T07:04:13.319Z,974.52
2022-09-28T07:05:13.224Z,974.57
2022-09-28T07:06:13.204Z,974.60
2022-09-28T07:07:13.183Z,974.56
2022-09-28T07:08:13.164Z,974.61
2022-09-28T07:09:30.655Z,974.61
2022-09-28T07:10:13.128Z,974.61
2022-09-28T07:11:13.114Z,974.58
2022-09-28T07:12:13.101Z,974.64
2022-09-28T07:13:34.095Z,974.63
2022-09-28T07:14:22.781Z,974.64
2022-09-28T07:15:13.039Z,974.68
2022-09-28T07:16:13.054Z,974.70
2022-09-28T07:17:14.586Z,974.74
2022-09-28T07:18:13.034Z,974.75
2022-09-28T07:19:12.973Z,974.76
2022-09-28T07:20:18.801Z,974.77
2022-09-28T07:21:22.257Z,974.73
2022-09-28T07:22:17.467Z,974.77
2022-09-28T07:23:18.854Z,974.79
2022-09-28T07:24:12.882Z,974.81
2022-09-28T07:25:12.867Z,974.81
2022-09-28T07:26:12.846Z,974.83
2022-09-28T07:27:12.830Z,974.88
2022-09-28T07:28:12.813Z,974.83
2022-09-28T07:29:12.795Z,974.90
2022-09-28T07:30:12.779Z,974.92
2022-09-28T07:31:12.795Z,974.96
2022-09-28T07:32:12.739Z,974.95
2022-09-28T07:33:12.726Z,974.96
2022-09-28T07:34:12.707Z,974.97
2022-09-28T07:35:12.690Z,975.03
2022-09-28T07:36:12.672Z,975.01
2022-09-28T07:37:12.659Z,975.07
2022-09-28T07:38:12.636Z,975.01
2022-09-28T07:39:12.622Z,975.01
2022-09-28T07:40:12.601Z,975.03
2022-09-28T07:41:12.585Z,975.04
2022-09-28T07:42:12.565Z,975.07
2022-09-28T07:43:12.549Z,975.11
2022-09-28T07:44:12.533Z,975.09
2022-09-28T07:45:12.516Z,975.13
2022-09-28T07:46:12.657Z,975.16
2022-09-28T07:47:12.483Z,975.17
2022-09-28T07:49:12.583Z,975.19
2022-09-28T07:50:12.426Z,975.19
2022-09-28T07:51:12.411Z,975.24
2022-09-28T07:52:12.393Z,975.25
2022-09-28T07:53:12.379Z,975.29
2022-09-28T07:54:12.364Z,975.29
2022-09-28T07:55:12.349Z,975.31
2022-09-28T07:56:12.329Z,975.35
2022-09-28T07:57:12.311Z,975.34
2022-09-28T07:58:12.297Z,975.35
2022-09-28T07:59:12.277Z,975.37
2022-09-28T08:00:12.260Z,975.34
2022-09-28T08:01:12.273Z,975.41
2022-09-28T08:02:12.250Z,975.44
2022-09-28T08:03:12.208Z,975.45
2022-09-28T08:04:12.193Z,975.42
2022-09-28T08:05:12.179Z,975.42
2022-09-28T08:06:12.162Z,975.46
2022-09-28T08:07:12.143Z,975.49
2022-09-28T08:08:12.127Z,975.49
2022-09-28T08:09:12.112Z,975.49
2022-09-28T08:10:12.096Z,975.51
2022-09-28T08:11:12.077Z,975.49
2022-09-28T08:12:12.060Z,975.47
2022-09-28T08:13:12.041Z,975.49
2022-09-28T08:14:12.026Z,975.52
2022-09-28T08:15:12.013Z,975.53
2022-09-28T08:16:12.091Z,975.56
2022-09-28T08:17:11.977Z,975.58
2022-09-28T08:18:11.970Z,975.54
2022-09-28T08:19:11.943Z,975.57
2022-09-28T08:20:11.931Z,975.58
2022-09-28T08:21:11.911Z,975.56
2022-09-28T08:22:11.895Z,975.63
2022-09-28T08:23:11.882Z,975.59
2022-09-28T08:24:11.863Z,975.63
2022-09-28T08:25:11.851Z,975.62
2022-09-28T08:26:15.396Z,975.67
2022-09-28T08:27:11.818Z,975.67
2022-09-28T08:28:11.799Z,975.66
2022-09-28T08:29:11.786Z,975.66
2022-09-28T08:30:11.766Z,975.67
2022-09-28T08:31:11.798Z,975.71
2022-09-28T08:32:11.734Z,975.72
2022-09-28T08:33:11.721Z,975.70
2022-09-28T08:34:11.704Z,975.70
2022-09-28T08:35:11.691Z,975.73
2022-09-28T08:36:11.672Z,975.73
2022-09-28T08:37:11.660Z,975.71
2022-09-28T08:38:11.642Z,975.67
2022-09-28T08:39:11.629Z,975.70
2022-09-28T08:40:11.611Z,975.70
2022-09-28T08:41:11.599Z,975.69
2022-09-28T08:42:11.580Z,975.71
2022-09-28T08:43:11.565Z,975.73
2022-09-28T08:44:11.547Z,975.73
2022-09-28T08:45:11.540Z,975.71
2022-09-28T08:46:11.541Z,975.76
2022-09-28T08:47:11.501Z,975.75
2022-09-28T08:48:11.500Z,975.84
2022-09-28T08:49:30.563Z,975.80
2022-09-28T08:50:11.472Z,975.80
2022-09-28T08:51:11.439Z,975.82
2022-09-28T08:52:11.427Z,975.86
2022-09-28T08:53:11.409Z,975.88
2022-09-28T08:54:12.105Z,975.86
2022-09-28T08:55:11.375Z,975.89
2022-09-28T08:56:11.378Z,975.88
2022-09-28T08:57:11.343Z,975.84
2022-09-28T08:58:11.337Z,975.86
2022-09-28T08:59:11.350Z,975.89
2022-09-28T09:00:11.847Z,975.91
2022-09-28T09:01:11.344Z,975.89
2022-09-28T09:02:11.308Z,975.92
2022-09-28T09:03:11.249Z,975.94
2022-09-28T09:04:11.298Z,975.91
2022-09-28T09:05:11.220Z,975.88
2022-09-28T09:06:14.209Z,975.93
2022-09-28T09:07:11.185Z,975.95
2022-09-28T09:08:11.168Z,975.93
2022-09-28T09:09:11.161Z,975.99
2022-09-28T09:10:11.139Z,975.99
2022-09-28T09:11:11.126Z,975.98
2022-09-28T09:12:11.122Z,975.94
2022-09-28T09:13:11.091Z,976.02
2022-09-28T09:14:11.131Z,976.00
2022-09-28T09:15:11.060Z,976.00
2022-09-28T09:16:11.044Z,976.04
2022-09-28T09:17:11.037Z,976.05
2022-09-28T09:18:11.014Z,976.03
2022-09-28T09:19:10.998Z,976.04
2022-09-28T09:20:10.984Z,976.05
2022-09-28T09:21:10.983Z,976.05
2022-09-28T09:22:10.955Z,976.06
2022-09-28T09:23:10.964Z,976.07
2022-09-28T09:24:10.939Z,976.09
2022-09-28T09:25:10.904Z,976.08
2022-09-28T09:26:11.067Z,976.09
2022-09-28T09:27:10.870Z,976.12
2022-09-28T09:28:10.861Z,976.09
2022-09-28T09:29:10.839Z,976.15
2022-09-28T09:30:10.828Z,976.03
2022-09-28T09:31:10.844Z,976.05
2022-09-28T09:32:10.795Z,976.11
2022-09-28T09:33:10.775Z,976.10
2022-09-28T09:34:10.789Z,976.10
2022-09-28T09:35:10.749Z,976.13
2022-09-28T09:36:10.732Z,976.08
2022-09-28T09:37:10.715Z,976.13
2022-09-28T09:38:10.697Z,976.12
2022-09-28T09:39:10.678Z,976.12
2022-09-28T09:40:10.664Z,976.07
2022-09-28T09:41:10.734Z,976.11
2022-09-28T09:42:10.635Z,976.09
2022-09-28T09:43:10.613Z,976.13
2022-09-28T09:44:10.683Z,976.11
2022-09-28T09:45:10.581Z,976.11
2022-09-28T09:46:10.594Z,976.11
2022-09-28T09:47:10.552Z,976.14
2022-09-28T09:48:10.535Z,976.16
2022-09-28T09:49:10.517Z,976.13
2022-09-28T09:50:10.541Z,976.16
2022-09-28T09:51:10.486Z,976.15
2022-09-28T09:52:10.481Z,976.09
2022-09-28T09:53:10.454Z,976.13
2022-09-28T09:54:10.514Z,976.15
2022-09-28T09:55:10.420Z,976.12
2022-09-28T09:56:10.405Z,976.14
2022-09-28T09:57:10.390Z,976.16
2022-09-28T09:58:10.374Z,976.14
2022-09-28T09:59:10.475Z,976.13
2022-09-28T10:00:10.341Z,976.10
2022-09-28T10:01:10.362Z,976.13
2022-09-28T10:02:11.867Z,976.11
2022-09-28T10:03:10.293Z,976.09
2022-09-28T10:04:10.283Z,976.09
2022-09-28T10:05:10.263Z,976.09
2022-09-28T10:06:10.251Z,976.06
2022-09-28T10:07:10.234Z,976.04
2022-09-28T10:08:10.221Z,976.06
2022-09-28T10:09:10.209Z,976.05
2022-09-28T10:10:10.191Z,976.13
2022-09-28T10:11:10.170Z,976.13
2022-09-28T10:12:10.159Z,976.14
2022-09-28T10:13:10.141Z,976.11
2022-09-28T10:14:10.130Z,976.15
2022-09-28T10:15:10.110Z,976.12
2022-09-28T10:16:10.099Z,976.11
2022-09-28T10:17:10.177Z,976.12
2022-09-28T10:18:10.075Z,976.10
2022-09-28T10:19:10.080Z,976.14
2022-09-28T10:20:10.042Z,976.09
2022-09-28T10:21:10.023Z,976.09
2022-09-28T10:22:10.010Z,976.13
2022-09-28T10:23:09.994Z,976.15
2022-09-28T10:24:09.981Z,976.17
2022-09-28T10:25:09.964Z,976.16
2022-09-28T10:26:09.959Z,976.20
2022-09-28T10:27:09.935Z,976.18
2022-09-28T10:28:09.919Z,976.18
2022-09-28T10:29:09.906Z,976.21
2022-09-28T10:30:09.895Z,976.22
2022-09-28T10:31:09.880Z,976.18
2022-09-28T10:32:09.863Z,976.18
2022-09-28T10:33:09.847Z,976.22
2022-09-28T10:34:09.838Z,976.26
2022-09-28T10:35:09.817Z,976.26
2022-09-28T10:36:09.804Z,976.26
2022-09-28T10:37:09.790Z,976.22
2022-09-28T10:38:09.777Z,976.22
2022-09-28T10:39:09.762Z,976.18
2022-09-28T10:40:09.747Z,976.24
2022-09-28T10:41:09.791Z,976.21
2022-09-28T10:42:09.720Z,976.21
2022-09-28T10:43:09.702Z,976.23
2022-09-28T10:44:09.693Z,976.25
2022-09-28T10:45:09.671Z,976.27
2022-09-28T10:46:09.715Z,976.21
2022-09-28T10:47:09.642Z,976.24
2022-09-28T10:48:09.633Z,976.24
2022-09-28T10:49:09.616Z,976.24
2022-09-28T10:50:09.602Z,976.26
2022-09-28T10:51:09.589Z,976.26
2022-09-28T10:52:09.572Z,976.22
2022-09-28T10:53:09.555Z,976.25
2022-09-28T10:54:09.542Z,976.25
2022-09-28T10:55:09.523Z,976.31
2022-09-28T10:56:09.509Z,976.33
2022-09-28T10:57:13.388Z,976.29
2022-09-28T10:58:09.496Z,976.31
2022-09-28T10:59:09.459Z,976.31
2022-09-28T11:00:09.446Z,976.32
2022-09-28T11:01:09.512Z,976.30
2022-09-28T11:02:09.455Z,976.32
2022-09-28T11:03:09.398Z,976.34
2022-09-28T11:04:09.430Z,976.36
2022-09-28T11:05:09.368Z,976.37
2022-09-28T11:06:09.353Z,976.35
2022-09-28T11:07:09.370Z,976.37
2022-09-28T11:08:09.321Z,976.41
2022-09-28T11:09:09.305Z,976.38
2022-09-28T11:10:09.294Z,976.36
2022-09-28T11:11:09.275Z,976.33
2022-09-28T11:12:09.258Z,976.36
2022-09-28T11:13:09.248Z,976.30
2022-09-28T11:14:09.233Z,976.31
2022-09-28T11:15:09.225Z,976.30
2022-09-28T11:16:09.200Z,976.35
2022-09-28T11:17:09.219Z,976.33
2022-09-28T11:18:09.168Z,976.33
2022-09-28T11:19:09.147Z,976.33
2022-09-28T11:20:09.134Z,976.35
2022-09-28T11:21:12.496Z,976.35
2022-09-28T11:22:11.861Z,976.36
2022-09-28T11:23:09.085Z,976.35
2022-09-28T11:24:09.072Z,976.36
2022-09-28T11:25:09.053Z,976.38
2022-09-28T11:26:09.041Z,976.40
2022-09-28T11:27:09.030Z,976.35
2022-09-28T11:28:09.008Z,976.37
2022-09-28T11:29:08.994Z,976.37
2022-09-28T11:30:08.978Z,976.37
2022-09-28T11:31:09.064Z,976.40
2022-09-28T11:32:12.412Z,976.40
2022-09-28T11:33:08.925Z,976.38
2022-09-28T11:34:08.914Z,976.34
2022-09-28T11:35:08.894Z,976.37
2022-09-28T11:36:08.954Z,976.35
2022-09-28T11:37:08.864Z,976.34
2022-09-28T11:38:08.849Z,976.36
2022-09-28T11:39:08.841Z,976.32
2022-09-28T11:40:08.817Z,976.29
2022-09-28T11:41:08.800Z,976.31
2022-09-28T11:42:10.990Z,976.27
2022-09-28T11:43:09.539Z,976.32
2022-09-28T11:44:08.751Z,976.27
2022-09-28T11:45:08.736Z,976.26
2022-09-28T11:46:08.824Z,976.27
2022-09-28T11:47:08.703Z,976.27
2022-09-28T11:48:08.690Z,976.29
2022-09-28T11:49:08.673Z,976.29
2022-09-28T11:50:08.662Z,976.27
2022-09-28T11:51:08.643Z,976.33
2022-09-28T11:52:08.627Z,976.31
2022-09-28T11:53:08.607Z,976.27
2022-09-28T11:54:08.606Z,976.26
2022-09-28T11:55:08.581Z,976.29
2022-09-28T11:56:09.195Z,976.30
2022-09-28T11:57:08.545Z,976.30
2022-09-28T11:58:08.531Z,976.28
2022-09-28T11:59:08.516Z,976.29
2022-09-28T12:00:08.505Z,976.26
2022-09-28T12:01:08.483Z,976.32
2022-09-28T12:02:08.592Z,976.26
2022-09-28T12:03:08.598Z,976.30
2022-09-28T12:04:08.442Z,976.30
2022-09-28T12:05:08.427Z,976.30
2022-09-28T12:06:08.409Z,976.31
2022-09-28T12:07:08.402Z,976.29
2022-09-28T12:08:08.391Z,976.31
2022-09-28T12:09:08.362Z,976.32
2022-09-28T12:10:08.350Z,976.30
2022-09-28T12:11:08.333Z,976.31
2022-09-28T12:12:08.321Z,976.30
2022-09-28T12:13:08.304Z,976.31
2022-09-28T12:14:08.288Z,976.28
2022-09-28T12:15:08.270Z,976.32
2022-09-28T12:16:45.188Z,976.31
2022-09-28T12:18:12.266Z,976.35
2022-09-28T12:19:12.204Z,976.33
2022-09-28T12:21:16.161Z,976.31
2022-09-28T12:22:16.134Z,976.31
2022-09-28T12:24:20.104Z,976.28
2022-09-28T12:25:20.083Z,976.27
2022-09-28T12:27:13.463Z,976.27
2022-09-28T12:28:13.451Z,976.28
2022-09-28T12:30:17.436Z,976.25
2022-09-28T12:31:17.409Z,976.23
2022-09-28T12:33:21.346Z,976.24
2022-09-28T12:34:21.319Z,976.23
2022-09-28T12:36:25.299Z,976.27
2022-09-28T12:37:25.264Z,976.21
2022-09-28T12:39:46.662Z,976.23
2022-09-28T12:40:29.235Z,976.25